Time,TemperatureF,DewpointF,PressureIn,WindDirection,WindDirectionDegrees,WindSpeedMPH,WindSpeedGustMPH,Humidity,HourlyPrecipIn,Conditions,Clouds,dailyrainin,SoftwareType,DateUTC
2013-06-15 00:01:00,37.0,36.0,30.19,WNW,293,0.0,-999.0,96,-99.99,,,-99.99,,2013-06-15 06:01:00,
2013-06-15 00:11:00,37.0,36.0,30.20,WNW,301,0.0,-999.0,96,-99.99,,,-99.99,,2013-06-15 06:11:00,
2013-06-15 00:24:00,37.0,36.0,30.20,WNW,301,0.0,-999.0,96,-99.99,,,-99.99,,2013-06-15 06:24:00,
2013-06-15 00:33:00,37.0,36.0,30.19,WNW,301,0.0,-999.0,96,-99.99,,,-99.99,,2013-06-15 06:33:00,
2013-06-15 00:43:00,37.0,36.0,30.19,WNW,301,1.0,-999.0,96,-99.99,,,-99.99,,2013-06-15 06:43:00,
2013-06-15 00:53:00,37.0,36.0,30.19,WNW,301,1.0,-999.0,96,-99.99,,,-99.99,,2013-06-15 06:53:00,
2013-06-15 01:01:00,37.0,36.0,30.20,WNW,299,1.0,-999.0,96,-99.99,,,-99.99,,2013-06-15 07:01:00,
2013-06-15 01:11:00,37.0,36.0,30.19,WNW,301,2.0,-999.0,97,-99.99,,,-99.99,,2013-06-15 07:11:00,
2013-06-15 01:23:00,37.0,36.0,30.19,WNW,301,1.0,-999.0,97,-99.99,,,-99.99,,2013-06-15 07:23:00,
2013-06-15 01:32:00,37.0,36.0,30.19,WNW,301,2.0,-999.0,97,-99.99,,,-99.99,,2013-06-15 07:32:00,
2013-06-15 01:43:00,37.0,36.0,30.19,WNW,303,4.0,-999.0,97,-99.99,,,-99.99,,2013-06-15 07:43:00,
2013-06-15 01:53:00,37.0,36.0,30.19,NW,310,4.0,-999.0,96,-99.99,,,-99.99,,2013-06-15 07:53:00,
2013-06-15 02:02:00,37.0,36.0,30.19,NW,305,4.0,-999.0,96,-99.99,,,-99.99,,2013-06-15 08:02:00,
2013-06-15 02:11:00,37.0,36.0,30.18,NW,311,4.0,-999.0,96,-99.99,,,-99.99,,2013-06-15 08:11:00,
2013-06-15 02:22:00,37.0,36.0,30.18,NW,312,4.0,-999.0,96,-99.99,,,-99.99,,2013-06-15 08:22:00,
2013-06-15 02:33:00,37.0,36.0,30.18,NW,306,4.0,-999.0,96,-99.99,,,-99.99,,2013-06-15 08:33:00,
2013-06-15 02:42:00,37.0,36.0,30.18,NW,305,4.0,-999.0,96,-99.99,,,-99.99,,2013-06-15 08:42:00,
2013-06-15 02:53:00,36.0,35.0,30.18,WNW,301,4.0,-999.0,96,-99.99,,,-99.99,,2013-06-15 08:53:00,
2013-06-15 03:02:00,36.0,35.0,30.18,WNW,296,4.0,-999.0,97,-99.99,,,-99.99,,2013-06-15 09:02:00,
2013-06-15 03:11:00,36.0,35.0,30.18,WNW,299,4.0,-999.0,97,-99.99,,,-99.99,,2013-06-15 09:11:00,
2013-06-15 03:21:00,36.0,35.0,30.18,WNW,302,5.0,-999.0,97,-99.99,,,-99.99,,2013-06-15 09:21:00,
2013-06-15 03:33:00,36.0,35.0,30.18,WNW,297,4.0,-999.0,98,-99.99,,,-99.99,,2013-06-15 09:33:00,
2013-06-15 03:43:00,36.0,35.0,30.18,WNW,291,4.0,-999.0,98,-99.99,,,-99.99,,2013-06-15 09:43:00,
2013-06-15 03:52:00,36.0,35.0,30.18,WNW,297,4.0,-999.0,98,-99.99,,,-99.99,,2013-06-15 09:52:00,
2013-06-15 04:02:00,36.0,35.0,30.18,WNW,300,5.0,-999.0,98,-99.99,,,-99.99,,2013-06-15 10:02:00,
2013-06-15 04:11:00,36.0,35.0,30.17,WNW,299,5.0,-999.0,98,-99.99,,,-99.99,,2013-06-15 10:11:00,
2013-06-15 04:23:00,36.0,35.0,30.17,WNW,299,5.0,-999.0,98,-99.99,,,-99.99,,2013-06-15 10:23:00,
2013-06-15 04:33:00,36.0,35.0,30.17,WNW,301,5.0,-999.0,98,-99.99,,,-99.99,,2013-06-15 10:33:00,
2013-06-15 04:43:00,36.0,35.0,30.18,WNW,295,5.0,-999.0,98,-99.99,,,-99.99,,2013-06-15 10:43:00,
2013-06-15 04:53:00,36.0,35.0,30.18,WNW,299,5.0,-999.0,98,-99.99,,,-99.99,,2013-06-15 10:53:00,
2013-06-15 05:01:00,36.0,35.0,30.17,WNW,292,4.0,-999.0,98,-99.99,,,-99.99,,2013-06-15 11:01:00,
2013-06-15 05:11:00,36.0,35.0,30.17,WNW,297,4.0,-999.0,98,-99.99,,,-99.99,,2013-06-15 11:11:00,
2013-06-15 05:22:00,36.0,35.0,30.17,WNW,301,3.0,-999.0,98,-99.99,,,-99.99,,2013-06-15 11:22:00,
2013-06-15 05:33:00,36.0,35.0,30.17,NW,307,3.0,-999.0,98,-99.99,,,-99.99,,2013-06-15 11:33:00,
2013-06-15 05:43:00,36.0,35.0,30.17,WNW,298,4.0,-999.0,98,-99.99,,,-99.99,,2013-06-15 11:43:00,
2013-06-15 05:53:00,36.0,35.0,30.17,WNW,299,4.0,-999.0,98,-99.99,,,-99.99,,2013-06-15 11:53:00,
2013-06-15 06:01:00,36.0,35.0,30.17,WNW,295,3.0,-999.0,98,-99.99,,,-99.99,,2013-06-15 12:01:00,
2013-06-15 06:11:00,36.0,35.0,30.17,WNW,292,4.0,-999.0,98,-99.99,,,-99.99,,2013-06-15 12:11:00,
2013-06-15 06:22:00,36.0,35.0,30.18,WNW,295,2.0,-999.0,98,-99.99,,,-99.99,,2013-06-15 12:22:00,
2013-06-15 06:33:00,36.0,35.0,30.18,WNW,291,3.0,-999.0,98,-99.99,,,-99.99,,2013-06-15 12:33:00,
2013-06-15 06:43:00,36.0,35.0,30.18,WNW,292,2.0,-999.0,98,-99.99,,,-99.99,,2013-06-15 12:43:00,
2013-06-15 06:52:00,36.0,35.0,30.18,WNW,293,4.0,-999.0,98,-99.99,,,-99.99,,2013-06-15 12:52:00,
2013-06-15 07:02:00,36.0,35.0,30.18,WNW,293,3.0,-999.0,97,-99.99,,,-99.99,,2013-06-15 13:02:00,
2013-06-15 07:11:00,36.0,35.0,30.18,WNW,293,3.0,-999.0,97,-99.99,,,-99.99,,2013-06-15 13:11:00,
2013-06-15 07:22:00,37.0,36.0,30.18,WNW,293,2.0,-999.0,96,-99.99,,,-99.99,,2013-06-15 13:22:00,
2013-06-15 07:32:00,37.0,36.0,30.18,WNW,291,3.0,-999.0,96,-99.99,,,-99.99,,2013-06-15 13:32:00,
2013-06-15 07:43:00,38.0,36.0,30.18,WNW,295,2.0,-999.0,93,-99.99,,,-99.99,,2013-06-15 13:43:00,
2013-06-15 07:53:00,38.0,36.0,30.18,WNW,295,2.0,-999.0,92,-99.99,,,-99.99,,2013-06-15 13:53:00,
2013-06-15 08:01:00,38.0,35.0,30.18,WNW,295,2.0,-999.0,90,-99.99,,,-99.99,,2013-06-15 14:01:00,
2013-06-15 08:11:00,38.0,35.0,30.17,WNW,299,2.0,-999.0,89,-99.99,,,-99.99,,2013-06-15 14:11:00,
2013-06-15 08:22:00,38.0,34.0,30.18,WNW,300,2.0,-999.0,87,-99.99,,,-99.99,,2013-06-15 14:22:00,
2013-06-15 08:34:00,38.0,34.0,30.18,WNW,303,1.0,-999.0,87,-99.99,,,-99.99,,2013-06-15 14:34:00,
2013-06-15 08:43:00,38.0,35.0,30.18,WNW,303,0.0,-999.0,88,-99.99,,,-99.99,,2013-06-15 14:43:00,
2013-06-15 08:53:00,38.0,35.0,30.17,WNW,303,0.0,-999.0,90,-99.99,,,-99.99,,2013-06-15 14:53:00,
2013-06-15 09:01:00,39.0,36.0,30.18,NW,320,1.0,-999.0,88,-99.99,,,-99.99,,2013-06-15 15:01:00,
2013-06-15 09:11:00,40.0,36.0,30.18,NNW,334,1.0,-999.0,87,-99.99,,,-99.99,,2013-06-15 15:11:00,
2013-06-15 09:22:00,40.0,37.0,30.18,NNW,334,0.0,-999.0,89,-99.99,,,-99.99,,2013-06-15 15:22:00,
2013-06-15 09:33:00,40.0,37.0,30.18,NNW,330,0.0,-999.0,90,-99.99,,,-99.99,,2013-06-15 15:33:00,
2013-06-15 09:42:00,41.0,37.0,30.17,NNW,328,2.0,-999.0,87,-99.99,,,-99.99,,2013-06-15 15:42:00,
2013-06-15 09:53:00,41.0,38.0,30.17,NW,320,2.0,-999.0,90,-99.99,,,-99.99,,2013-06-15 15:53:00,
2013-06-15 10:01:00,41.0,37.0,30.17,North,4,4.0,-999.0,84,-99.99,,,-99.99,,2013-06-15 16:01:00,
2013-06-15 10:11:00,41.0,38.0,30.17,NNW,336,2.0,-999.0,88,-99.99,,,-99.99,,2013-06-15 16:11:00,
2013-06-15 10:21:00,42.0,38.0,30.17,NNW,327,2.0,-999.0,85,-99.99,,,-99.99,,2013-06-15 16:21:00,
2013-06-15 10:33:00,42.0,38.0,30.17,NNW,328,2.0,-999.0,87,-99.99,,,-99.99,,2013-06-15 16:33:00,
2013-06-15 10:43:00,43.0,40.0,30.16,NW,310,1.0,-999.0,88,-99.99,,,-99.99,,2013-06-15 16:43:00,
2013-06-15 10:53:00,43.0,40.0,30.16,NW,314,2.0,-999.0,88,-99.99,,,-99.99,,2013-06-15 16:53:00,
2013-06-15 11:01:00,43.0,39.0,30.16,NW,314,1.0,-999.0,87,-99.99,,,-99.99,,2013-06-15 17:01:00,
2013-06-15 11:11:00,45.0,41.0,30.16,NW,311,1.0,-999.0,86,-99.99,,,-99.99,,2013-06-15 17:11:00,
2013-06-15 11:21:00,44.0,40.0,30.15,WNW,302,3.0,-999.0,86,-99.99,,,-99.99,,2013-06-15 17:21:00,
2013-06-15 11:32:00,44.0,40.0,30.15,NW,309,3.0,-999.0,86,-99.99,,,-99.99,,2013-06-15 17:32:00,
2013-06-15 11:43:00,44.0,40.0,30.15,NW,308,2.0,-999.0,87,-99.99,,,-99.99,,2013-06-15 17:43:00,
2013-06-15 11:52:00,44.0,40.0,30.15,NW,308,1.0,-999.0,86,-99.99,,,-99.99,,2013-06-15 17:52:00,
2013-06-15 12:01:00,44.0,39.0,30.15,WNW,303,2.0,-999.0,84,-99.99,,,-99.99,,2013-06-15 18:01:00,
2013-06-15 12:11:00,45.0,40.0,30.15,WNW,300,2.0,-999.0,83,-99.99,,,-99.99,,2013-06-15 18:11:00,
2013-06-15 12:22:00,45.0,40.0,30.15,NW,310,4.0,-999.0,82,-99.99,,,-99.99,,2013-06-15 18:22:00,
2013-06-15 12:32:00,46.0,41.0,30.15,NW,311,4.0,-999.0,83,-99.99,,,-99.99,,2013-06-15 18:32:00,
2013-06-15 12:43:00,46.0,40.0,30.15,NW,305,3.0,-999.0,79,-99.99,,,-99.99,,2013-06-15 18:43:00,
2013-06-15 12:53:00,46.0,40.0,30.15,NW,304,3.0,-999.0,79,-99.99,,,-99.99,,2013-06-15 18:53:00,
2013-06-15 13:01:00,47.0,41.0,30.15,NW,318,3.0,-999.0,78,-99.99,,,-99.99,,2013-06-15 19:01:00,
2013-06-15 13:11:00,48.0,41.0,30.15,NW,314,3.0,-999.0,78,-99.99,,,-99.99,,2013-06-15 19:11:00,
2013-06-15 13:22:00,48.0,40.0,30.14,WNW,291,4.0,-999.0,75,-99.99,,,-99.99,,2013-06-15 19:22:00,
2013-06-15 13:32:00,48.0,41.0,30.14,WNW,303,4.0,-999.0,78,-99.99,,,-99.99,,2013-06-15 19:32:00,
2013-06-15 13:43:00,50.0,43.0,30.14,WNW,303,4.0,-999.0,78,-99.99,,,-99.99,,2013-06-15 19:43:00,
2013-06-15 13:52:00,50.0,42.0,30.14,NW,314,4.0,-999.0,75,-99.99,,,-99.99,,2013-06-15 19:52:00,
2013-06-15 14:01:00,50.0,41.0,30.14,North,354,5.0,-999.0,71,-99.99,,,-99.99,,2013-06-15 20:01:00,
2013-06-15 14:11:00,50.0,42.0,30.14,NW,318,3.0,-999.0,74,-99.99,,,-99.99,,2013-06-15 20:11:00,
2013-06-15 14:22:00,49.0,40.0,30.14,WNW,303,4.0,-999.0,72,-99.99,,,-99.99,,2013-06-15 20:22:00,
2013-06-15 14:33:00,50.0,42.0,30.14,WNW,289,4.0,-999.0,73,-99.99,,,-99.99,,2013-06-15 20:33:00,
2013-06-15 14:43:00,50.0,42.0,30.13,WNW,295,4.0,-999.0,74,-99.99,,,-99.99,,2013-06-15 20:43:00,
2013-06-15 14:52:00,51.0,42.0,30.13,NW,307,5.0,-999.0,71,-99.99,,,-99.99,,2013-06-15 20:52:00,
2013-06-15 15:01:00,51.0,40.0,30.13,NW,312,4.0,-999.0,67,-99.99,,,-99.99,,2013-06-15 21:01:00,
2013-06-15 15:11:00,51.0,40.0,30.13,NW,306,5.0,-999.0,65,-99.99,,,-99.99,,2013-06-15 21:11:00,
2013-06-15 15:22:00,51.0,41.0,30.13,WNW,293,4.0,-999.0,68,-99.99,,,-99.99,,2013-06-15 21:22:00,
2013-06-15 15:33:00,50.0,39.0,30.13,NW,326,4.0,-999.0,67,-99.99,,,-99.99,,2013-06-15 21:33:00,
2013-06-15 15:42:00,52.0,41.0,30.13,NW,305,5.0,-999.0,66,-99.99,,,-99.99,,2013-06-15 21:42:00,
2013-06-15 15:52:00,51.0,39.0,30.12,WNW,300,4.0,-999.0,64,-99.99,,,-99.99,,2013-06-15 21:52:00,
2013-06-15 16:01:00,52.0,39.0,30.12,NW,308,6.0,-999.0,62,-99.99,,,-99.99,,2013-06-15 22:01:00,
2013-06-15 16:11:00,52.0,41.0,30.11,NW,326,5.0,-999.0,65,-99.99,,,-99.99,,2013-06-15 22:11:00,
2013-06-15 16:22:00,53.0,39.0,30.11,NW,325,4.0,-999.0,59,-99.99,,,-99.99,,2013-06-15 22:22:00,
2013-06-15 16:32:00,53.0,39.0,30.11,NW,308,3.0,-999.0,59,-99.99,,,-99.99,,2013-06-15 22:32:00,
2013-06-15 16:42:00,54.0,40.0,30.11,NW,304,3.0,-999.0,58,-99.99,,,-99.99,,2013-06-15 22:42:00,
2013-06-15 16:53:00,54.0,39.0,30.11,NW,305,3.0,-999.0,56,-99.99,,,-99.99,,2013-06-15 22:53:00,
2013-06-15 17:01:00,54.0,38.0,30.10,WSW,257,3.0,-999.0,54,-99.99,,,-99.99,,2013-06-15 23:01:00,
2013-06-15 17:11:00,54.0,38.0,30.10,WNW,291,4.0,-999.0,55,-99.99,,,-99.99,,2013-06-15 23:11:00,
2013-06-15 17:22:00,54.0,38.0,30.10,WNW,301,4.0,-999.0,54,-99.99,,,-99.99,,2013-06-15 23:22:00,
2013-06-15 17:33:00,54.0,37.0,30.10,WNW,289,4.0,-999.0,53,-99.99,,,-99.99,,2013-06-15 23:33:00,
2013-06-15 17:42:00,55.0,39.0,30.10,NW,310,3.0,-999.0,54,-99.99,,,-99.99,,2013-06-15 23:42:00,
2013-06-15 17:52:00,54.0,37.0,30.10,NW,326,4.0,-999.0,53,-99.99,,,-99.99,,2013-06-15 23:52:00,
2013-06-15 18:01:00,54.0,36.0,30.10,NNE,32,1.0,-999.0,51,-99.99,,,-99.99,,2013-06-16 00:01:00,
2013-06-15 18:11:00,54.0,38.0,30.10,NNE,30,0.0,-999.0,54,-99.99,,,-99.99,,2013-06-16 00:11:00,
2013-06-15 18:22:00,54.0,38.0,30.10,NNW,330,1.0,-999.0,54,-99.99,,,-99.99,,2013-06-16 00:22:00,
2013-06-15 18:33:00,54.0,36.0,30.10,NNW,330,2.0,-999.0,51,-99.99,,,-99.99,,2013-06-16 00:33:00,
2013-06-15 18:43:00,54.0,37.0,30.10,NW,313,2.0,-999.0,53,-99.99,,,-99.99,,2013-06-16 00:43:00,
2013-06-15 18:52:00,55.0,37.0,30.10,NNW,338,0.0,-999.0,51,-99.99,,,-99.99,,2013-06-16 00:52:00,
2013-06-15 19:01:00,54.0,37.0,30.09,NW,305,1.0,-999.0,53,-99.99,,,-99.99,,2013-06-16 01:01:00,
2013-06-15 19:11:00,54.0,35.0,30.09,WNW,293,2.0,-999.0,48,-99.99,,,-99.99,,2013-06-16 01:11:00,
2013-06-15 19:22:00,54.0,37.0,30.09,WNW,289,2.0,-999.0,52,-99.99,,,-99.99,,2013-06-16 01:22:00,
2013-06-15 19:33:00,54.0,36.0,30.09,NW,311,4.0,-999.0,51,-99.99,,,-99.99,,2013-06-16 01:33:00,
2013-06-15 19:42:00,53.0,35.0,30.09,NW,321,1.0,-999.0,50,-99.99,,,-99.99,,2013-06-16 01:42:00,
2013-06-15 19:53:00,53.0,36.0,30.09,WNW,296,2.0,-999.0,52,-99.99,,,-99.99,,2013-06-16 01:53:00,
2013-06-15 20:01:00,53.0,38.0,30.09,WNW,299,1.0,-999.0,56,-99.99,,,-99.99,,2013-06-16 02:01:00,
2013-06-15 20:11:00,54.0,36.0,30.09,WNW,301,0.0,-999.0,51,-99.99,,,-99.99,,2013-06-16 02:11:00,
2013-06-15 20:22:00,55.0,37.0,30.09,NE,52,1.0,-999.0,50,-99.99,,,-99.99,,2013-06-16 02:22:00,
2013-06-15 20:33:00,55.0,36.0,30.09,NNE,14,1.0,-999.0,48,-99.99,,,-99.99,,2013-06-16 02:33:00,
2013-06-15 20:42:00,53.0,34.0,30.09,NNW,335,2.0,-999.0,48,-99.99,,,-99.99,,2013-06-16 02:42:00,
2013-06-15 20:53:00,53.0,34.0,30.09,NNW,340,2.0,-999.0,48,-99.99,,,-99.99,,2013-06-16 02:53:00,
2013-06-15 21:01:00,53.0,35.0,30.09,North,354,2.0,-999.0,50,-99.99,,,-99.99,,2013-06-16 03:01:00,
2013-06-15 21:11:00,53.0,35.0,30.09,NE,37,2.0,-999.0,50,-99.99,,,-99.99,,2013-06-16 03:11:00,
2013-06-15 21:22:00,52.0,33.0,30.09,North,354,1.0,-999.0,49,-99.99,,,-99.99,,2013-06-16 03:22:00,
2013-06-15 21:33:00,52.0,34.0,30.09,North,354,2.0,-999.0,50,-99.99,,,-99.99,,2013-06-16 03:33:00,
2013-06-15 21:43:00,51.0,34.0,30.09,NE,53,2.0,-999.0,51,-99.99,,,-99.99,,2013-06-16 03:43:00,
2013-06-15 21:53:00,50.0,32.0,30.09,ENE,64,3.0,-999.0,50,-99.99,,,-99.99,,2013-06-16 03:53:00,
2013-06-15 22:01:00,50.0,32.0,30.09,NE,50,4.0,-999.0,49,-99.99,,,-99.99,,2013-06-16 04:01:00,
2013-06-15 22:12:00,50.0,32.0,30.09,ENE,76,5.0,-999.0,49,-99.99,,,-99.99,,2013-06-16 04:12:00,
2013-06-15 22:23:00,50.0,32.0,30.09,East,79,5.0,-999.0,49,-99.99,,,-99.99,,2013-06-16 04:23:00,
2013-06-15 22:33:00,50.0,32.0,30.10,ENE,68,6.0,-999.0,50,-99.99,,,-99.99,,2013-06-16 04:33:00,
2013-06-15 22:42:00,50.0,32.0,30.10,SSE,155,4.0,-999.0,50,-99.99,,,-99.99,,2013-06-16 04:42:00,
2013-06-15 22:53:00,50.0,32.0,30.10,ENE,71,5.0,-999.0,50,-99.99,,,-99.99,,2013-06-16 04:53:00,
2013-06-15 23:01:00,50.0,32.0,30.10,ENE,78,3.0,-999.0,50,-99.99,,,-99.99,,2013-06-16 05:01:00,
2013-06-15 23:11:00,50.0,32.0,30.10,East,95,3.0,-999.0,50,-99.99,,,-99.99,,2013-06-16 05:11:00,
2013-06-15 23:22:00,50.0,33.0,30.10,East,80,1.0,-999.0,52,-99.99,,,-99.99,,2013-06-16 05:22:00,
2013-06-15 23:33:00,49.0,33.0,30.10,East,99,1.0,-999.0,53,-99.99,,,-99.99,,2013-06-16 05:33:00,
2013-06-15 23:43:00,49.0,33.0,30.10,ENE,58,1.0,-999.0,53,-99.99,,,-99.99,,2013-06-16 05:43:00,
2013-06-15 23:52:00,49.0,33.0,30.09,NNW,338,2.0,-999.0,53,-99.99,,,-99.99,,2013-06-16 05:52:00,